Time;durP1;ratioP1;P1;durP2;ratioP2;P2;SDS_P1;SDS_P2;PMS_P1;PMS_P2;Temp;Humidity;BMP_temperature;BMP_pressure;BME280_temperature;BME280_humidity;BME280_pressure;Samples;Min_cycle;Max_cycle;Signal;HPM_P1;HPM_P2
2021/08/21 00:01:29;;;;;;;14.87;11.53;;;14.80;99.90;;;;;;4389661;32;20178;-65
2021/08/21 00:03:56;;;;;;;16.37;11.23;;;14.90;99.90;;;;;;4390347;32;20211;-65
2021/08/21 00:06:25;;;;;;;13.93;10.43;;;14.90;99.90;;;;;;4389968;32;20255;-66
2021/08/21 00:08:52;;;;;;;12.80;10.33;;;14.80;99.90;;;;;;4388230;32;20580;-65
2021/08/21 00:11:19;;;;;;;18.07;10.87;;;14.80;99.90;;;;;;4386866;32;20194;-66
2021/08/21 00:13:49;;;;;;;12.40;8.90;;;14.80;99.90;;;;;;4390791;32;20175;-65
2021/08/21 00:16:16;;;;;;;12.67;10.07;;;14.80;99.90;;;;;;4389926;32;20152;-66
2021/08/21 00:18:42;;;;;;;12.67;9.87;;;14.70;99.90;;;;;;4390800;32;20575;-65
2021/08/21 00:21:13;;;;;;;18.03;10.97;;;14.70;99.90;;;;;;4390563;32;20207;-66
2021/08/21 00:23:41;;;;;;;14.30;11.03;;;14.60;99.90;;;;;;4390383;32;20168;-68
2021/08/21 00:26:08;;;;;;;14.27;10.97;;;14.60;99.90;;;;;;4389522;32;20224;-66
2021/08/21 00:28:35;;;;;;;15.20;11.67;;;14.70;99.90;;;;;;4389884;32;20190;-65
2021/08/21 00:31:02;;;;;;;14.97;11.53;;;14.60;99.90;;;;;;4390340;32;20170;-67
2021/08/21 00:33:29;;;;;;;17.37;11.73;;;14.60;99.90;;;;;;4392653;32;20215;-66
2021/08/21 00:35:56;;;;;;;17.10;11.57;;;14.50;99.90;;;;;;4395067;32;20195;-67
2021/08/21 00:38:25;;;;;;;19.10;12.20;;;14.50;99.90;;;;;;4394115;32;20198;-66
2021/08/21 00:40:53;;;;;;;19.37;14.47;;;14.50;99.90;;;;;;4394407;32;20156;-66
2021/08/21 00:43:21;;;;;;;22.07;15.70;;;14.50;99.90;;;;;;4392229;32;20152;-67
2021/08/21 00:45:48;;;;;;;20.60;13.90;;;14.50;99.90;;;;;;4393083;32;20144;-66
2021/08/21 00:48:15;;;;;;;18.50;12.43;;;14.60;99.90;;;;;;4391600;32;20199;-66
2021/08/21 00:50:43;;;;;;;13.53;10.53;;;14.60;99.90;;;;;;4392322;32;20215;-66
2021/08/21 00:53:10;;;;;;;16.53;10.30;;;14.60;99.90;;;;;;4392773;32;20507;-66
2021/08/21 00:55:37;;;;;;;17.77;13.63;;;14.60;99.90;;;;;;4393327;32;20145;-66
2021/08/21 00:58:05;;;;;;;22.93;14.73;;;14.60;99.90;;;;;;4393830;32;20152;-67
2021/08/21 01:00:32;;;;;;;27.63;18.70;;;14.50;99.90;;;;;;4385956;32;20564;-66
2021/08/21 01:02:59;;;;;;;29.20;18.77;;;14.50;99.90;;;;;;4389804;32;20164;-66
2021/08/21 01:05:28;;;;;;;28.23;18.00;;;14.50;99.90;;;;;;4393231;32;20187;-67
2021/08/21 01:07:55;;;;;;;26.33;18.47;;;14.50;99.90;;;;;;4393196;32;20677;-66
2021/08/21 01:10:21;;;;;;;32.43;19.43;;;14.50;99.90;;;;;;4392488;32;20179;-66
2021/08/21 01:12:52;;;;;;;29.87;20.30;;;14.60;99.90;;;;;;4392158;32;20195;-66
2021/08/21 01:15:21;;;;;;;31.20;18.93;;;14.60;99.90;;;;;;4393720;32;20156;-66
2021/08/21 01:17:48;;;;;;;28.40;19.47;;;14.60;99.90;;;;;;4391909;32;20189;-66
2021/08/21 01:20:15;;;;;;;28.13;19.50;;;14.50;99.90;;;;;;4392920;32;20665;-66
2021/08/21 01:22:43;;;;;;;27.73;20.10;;;14.50;99.90;;;;;;4393362;32;20157;-67
2021/08/21 01:25:13;;;;;;;24.67;17.97;;;14.60;99.90;;;;;;4392067;32;20190;-67
2021/08/21 01:27:42;;;;;;;24.77;17.57;;;14.60;99.90;;;;;;4392873;32;20171;-67
2021/08/21 01:30:10;;;;;;;24.37;17.33;;;14.60;99.90;;;;;;4391899;32;20191;-65
2021/08/21 01:32:37;;;;;;;23.70;17.03;;;14.60;99.90;;;;;;4393782;32;20168;-66
2021/08/21 01:35:05;;;;;;;20.37;15.87;;;14.60;99.90;;;;;;4391546;32;20170;-66
2021/08/21 01:37:34;;;;;;;20.03;15.97;;;14.60;99.90;;;;;;4392421;32;20204;-66
2021/08/21 01:40:01;;;;;;;22.07;16.60;;;14.50;99.90;;;;;;4393806;32;20168;-66
2021/08/21 01:42:29;;;;;;;26.93;18.30;;;14.50;99.90;;;;;;4392131;32;20164;-66
2021/08/21 01:44:57;;;;;;;24.03;16.93;;;14.40;99.90;;;;;;4391591;32;20243;-66
2021/08/21 01:47:26;;;;;;;21.70;16.43;;;14.40;99.90;;;;;;4377041;32;20213;-66
2021/08/21 01:49:58;;;;;;;22.10;16.23;;;14.40;99.90;;;;;;4379157;32;20243;-66
2021/08/21 01:52:26;;;;;;;21.77;16.30;;;14.40;99.90;;;;;;4379309;32;20211;-67
2021/08/21 01:54:54;;;;;;;26.87;18.27;;;14.30;99.90;;;;;;4379486;32;20144;-66
2021/08/21 01:57:21;;;;;;;25.20;16.67;;;14.40;99.90;;;;;;4393253;32;20215;-66
2021/08/21 01:59:49;;;;;;;24.53;17.87;;;14.30;99.90;;;;;;4391803;32;20148;-65
2021/08/21 02:02:20;;;;;;;29.73;18.93;;;14.40;99.90;;;;;;4392907;32;20214;-65
2021/08/21 02:04:47;;;;;;;25.47;18.50;;;14.30;99.90;;;;;;4392277;32;20164;-65
2021/08/21 02:07:14;;;;;;;23.37;17.07;;;14.30;99.90;;;;;;4391337;32;20175;-66
2021/08/21 02:09:40;;;;;;;25.13;16.80;;;14.30;99.90;;;;;;4392116;32;20204;-66
2021/08/21 02:12:08;;;;;;;24.27;17.77;;;14.30;99.90;;;;;;4391680;32;20224;-66
2021/08/21 02:14:35;;;;;;;28.57;18.63;;;14.30;99.90;;;;;;4391513;32;20242;-66
2021/08/21 02:17:04;;;;;;;26.83;17.47;;;14.40;99.90;;;;;;4391902;32;20148;-67
2021/08/21 02:19:32;;;;;;;26.50;18.60;;;14.40;99.90;;;;;;4391597;32;20216;-66
2021/08/21 02:22:01;;;;;;;27.97;17.80;;;14.50;99.90;;;;;;4399739;32;20589;-67
2021/08/21 02:24:28;;;;;;;23.87;17.80;;;14.50;99.90;;;;;;4403782;32;20212;-67
2021/08/21 02:26:58;;;;;;;25.37;17.57;;;14.40;99.90;;;;;;4393202;32;20151;-68
2021/08/21 02:29:25;;;;;;;25.17;16.57;;;14.30;99.90;;;;;;4392569;32;20332;-65
2021/08/21 02:31:55;;;;;;;25.53;17.13;;;14.30;99.90;;;;;;4392858;32;20500;-64
2021/08/21 02:34:22;;;;;;;24.27;16.63;;;14.30;99.90;;;;;;4391765;32;20619;-65
2021/08/21 02:36:51;;;;;;;24.77;17.23;;;14.20;99.90;;;;;;4391698;32;20166;-67
2021/08/21 02:39:18;;;;;;;24.13;16.90;;;14.30;99.90;;;;;;4390890;32;20152;-68
2021/08/21 02:41:45;;;;;;;22.57;15.33;;;14.20;99.90;;;;;;4391992;32;20161;-66
2021/08/21 02:44:12;;;;;;;22.80;16.60;;;14.20;99.90;;;;;;4390997;32;20156;-68
2021/08/21 02:46:39;;;;;;;22.23;16.07;;;14.30;99.90;;;;;;4392065;32;20174;-66
2021/08/21 02:49:06;;;;;;;25.10;17.20;;;14.30;99.90;;;;;;4386280;32;20484;-67
2021/08/21 02:51:35;;;;;;;20.87;16.00;;;14.30;99.90;;;;;;4377246;32;20251;-66
2021/08/21 02:54:05;;;;;;;26.63;17.93;;;14.20;99.90;;;;;;4373381;32;20658;-66
2021/08/21 02:56:33;;;;;;;23.37;17.30;;;14.20;99.90;;;;;;4373935;32;20827;-66
2021/08/21 02:59:00;;;;;;;24.47;16.77;;;14.20;99.90;;;;;;4372702;32;20203;-67
2021/08/21 03:01:34;;;;;;;25.23;17.40;;;14.10;99.90;;;;;;4371512;32;20215;-67
2021/08/21 03:04:00;;;;;;;26.23;17.50;;;14.20;99.90;;;;;;4373497;32;22350;-66
2021/08/21 03:06:31;;;;;;;24.73;17.33;;;14.20;99.90;;;;;;4370808;32;20342;-66
2021/08/21 03:08:58;;;;;;;25.03;17.00;;;14.20;99.90;;;;;;4375490;32;20220;-66
2021/08/21 03:11:26;;;;;;;24.87;16.80;;;14.10;99.90;;;;;;4383557;32;20190;-66
2021/08/21 03:13:53;;;;;;;26.77;17.07;;;14.10;99.90;;;;;;4386569;32;20221;-66
2021/08/21 03:16:20;;;;;;;26.07;16.40;;;14.10;99.90;;;;;;4390355;32;20635;-66
2021/08/21 03:18:46;;;;;;;28.30;17.37;;;14.10;99.90;;;;;;4390893;32;20182;-66
2021/08/21 03:21:15;;;;;;;27.80;18.50;;;14.00;99.90;;;;;;4390687;32;20168;-67
2021/08/21 03:23:42;;;;;;;28.50;17.97;;;14.00;99.90;;;;;;4391943;32;20166;-66
2021/08/21 03:26:09;;;;;;;29.27;18.37;;;14.00;99.90;;;;;;4390826;32;20159;-66
2021/08/21 03:28:37;;;;;;;24.97;17.47;;;14.00;99.90;;;;;;4391624;32;20239;-66
2021/08/21 03:31:04;;;;;;;26.27;17.47;;;14.00;99.90;;;;;;4392123;32;20515;-66
2021/08/21 03:33:31;;;;;;;30.20;18.37;;;14.00;99.90;;;;;;4383882;32;20149;-66
2021/08/21 03:35:58;;;;;;;25.70;17.20;;;14.00;99.90;;;;;;4375874;32;20168;-66
2021/08/21 03:38:24;;;;;;;27.87;17.30;;;14.00;99.90;;;;;;4375951;32;20213;-67
2021/08/21 03:40:51;;;;;;;26.87;16.20;;;14.10;99.90;;;;;;4375807;32;20172;-66
2021/08/21 03:43:18;;;;;;;26.20;18.33;;;14.20;99.90;;;;;;4390420;32;20240;-65
2021/08/21 03:45:46;;;;;;;22.53;15.03;;;14.20;99.90;;;;;;4391229;32;20619;-65
2021/08/21 03:48:16;;;;;;;26.47;16.07;;;14.30;99.90;;;;;;4390628;32;20156;-66
2021/08/21 03:50:43;;;;;;;23.63;15.50;;;14.30;99.90;;;;;;4390167;32;20501;-66
2021/08/21 03:53:10;;;;;;;22.80;14.60;;;14.30;99.90;;;;;;4389814;32;20156;-67
2021/08/21 03:55:37;;;;;;;22.90;14.83;;;14.30;99.90;;;;;;4391233;32;20151;-65
2021/08/21 03:58:04;;;;;;;21.60;14.93;;;14.30;99.90;;;;;;4391009;32;20148;-66
2021/08/21 04:00:31;;;;;;;21.17;14.60;;;14.30;99.90;;;;;;4390660;32;20182;-66
2021/08/21 04:02:59;;;;;;;22.37;14.50;;;14.30;99.90;;;;;;4390197;32;20156;-66
2021/08/21 04:05:28;;;;;;;20.47;14.47;;;14.20;99.90;;;;;;4390328;32;20183;-67
2021/08/21 04:07:55;;;;;;;21.90;13.90;;;14.10;99.90;;;;;;4380970;32;20186;-65
2021/08/21 04:10:22;;;;;;;22.10;14.23;;;14.00;99.90;;;;;;4376589;32;20160;-66
2021/08/21 04:12:49;;;;;;;24.33;16.13;;;13.90;99.90;;;;;;4383457;32;20212;-67
2021/08/21 04:15:16;;;;;;;23.70;14.73;;;14.00;99.90;;;;;;4392200;32;20162;-65
2021/08/21 04:17:43;;;;;;;23.13;14.63;;;14.00;99.90;;;;;;4391798;32;20219;-65
2021/08/21 04:20:12;;;;;;;21.73;14.20;;;14.00;99.90;;;;;;4391631;32;20197;-66
2021/08/21 04:22:39;;;;;;;23.13;14.77;;;14.00;99.90;;;;;;4390382;32;20160;-66
2021/08/21 04:25:07;;;;;;;19.90;12.47;;;14.00;99.90;;;;;;4390759;32;20638;-66
2021/08/21 04:27:37;;;;;;;20.20;12.57;;;14.00;99.90;;;;;;4390442;32;20177;-65
2021/08/21 04:30:05;;;;;;;19.27;11.80;;;14.10;99.90;;;;;;4389413;32;20186;-66
2021/08/21 04:32:34;;;;;;;21.87;13.50;;;14.00;99.90;;;;;;4390258;32;20178;-65
2021/08/21 04:35:01;;;;;;;19.70;12.93;;;14.00;99.90;;;;;;4390221;32;20167;-66
2021/08/21 04:37:29;;;;;;;22.33;13.80;;;13.90;99.90;;;;;;4390243;32;20149;-67
2021/08/21 04:39:57;;;;;;;19.43;11.20;;;13.90;99.90;;;;;;4389646;32;20218;-66
2021/08/21 04:42:27;;;;;;;18.07;11.87;;;13.90;99.90;;;;;;4389586;32;20151;-66
2021/08/21 04:44:59;;;;;;;18.57;11.77;;;13.90;99.90;;;;;;4390076;32;20175;-65
2021/08/21 04:47:28;;;;;;;16.93;11.43;;;13.90;99.90;;;;;;4390281;32;20148;-65
2021/08/21 04:49:55;;;;;;;18.50;11.87;;;14.00;99.90;;;;;;4389098;32;22858;-66
2021/08/21 04:52:22;;;;;;;19.17;12.37;;;14.00;99.90;;;;;;4390180;32;20206;-67
2021/08/21 04:54:51;;;;;;;23.10;13.23;;;14.10;99.90;;;;;;4389917;32;20195;-66
2021/08/21 04:57:18;;;;;;;20.37;11.87;;;14.20;99.90;;;;;;4390134;32;20633;-66
2021/08/21 04:59:45;;;;;;;18.87;12.00;;;14.30;99.90;;;;;;4388209;32;20190;-65
2021/08/21 05:02:12;;;;;;;17.23;12.27;;;14.30;99.90;;;;;;4389375;32;20175;-64
2021/08/21 05:04:39;;;;;;;18.60;11.70;;;14.50;99.90;;;;;;4389741;32;20323;-64
2021/08/21 05:07:06;;;;;;;17.60;12.47;;;14.60;99.90;;;;;;4389481;32;20245;-64
2021/08/21 05:09:32;;;;;;;19.47;11.17;;;14.80;99.90;;;;;;4389991;32;20156;-64
2021/08/21 05:12:01;;;;;;;18.03;12.47;;;14.90;99.90;;;;;;4390356;32;20152;-64
2021/08/21 05:14:28;;;;;;;19.80;12.27;;;14.90;99.90;;;;;;4389421;32;20274;-66
2021/08/21 05:16:54;;;;;;;18.47;12.30;;;15.00;99.90;;;;;;4390312;32;20175;-64
2021/08/21 05:19:29;;;;;;;19.23;12.63;;;15.10;99.90;;;;;;4387721;32;20152;-67
2021/08/21 05:21:58;;;;;;;18.30;11.93;;;15.10;99.90;;;;;;4400431;32;20563;-64
2021/08/21 05:24:25;;;;;;;19.40;12.03;;;15.10;99.90;;;;;;4400205;32;20151;-64
2021/08/21 05:26:52;;;;;;;17.57;12.23;;;15.20;99.90;;;;;;4392713;32;20176;-65
2021/08/21 05:29:20;;;;;;;17.50;12.13;;;15.20;99.90;;;;;;4392418;32;20663;-64
2021/08/21 05:31:47;;;;;;;18.47;12.97;;;15.30;99.90;;;;;;4390017;32;20179;-64
2021/08/21 05:34:15;;;;;;;17.97;12.20;;;15.30;99.90;;;;;;4383162;32;20194;-64
2021/08/21 05:36:42;;;;;;;21.47;13.00;;;15.40;99.90;;;;;;4392408;32;20165;-64
2021/08/21 05:39:11;;;;;;;19.23;12.97;;;15.50;99.90;;;;;;4393086;32;20204;-65
2021/08/21 05:41:38;;;;;;;21.13;14.77;;;15.50;99.90;;;;;;4393671;32;20162;-65
2021/08/21 05:44:05;;;;;;;16.33;11.97;;;15.60;99.90;;;;;;4391431;32;20172;-65
2021/08/21 05:46:33;;;;;;;20.53;13.40;;;15.60;99.90;;;;;;4392354;32;20212;-65
2021/08/21 05:49:00;;;;;;;16.20;12.50;;;15.70;99.90;;;;;;4390768;32;20176;-64
2021/08/21 05:51:29;;;;;;;18.50;12.60;;;15.80;99.90;;;;;;4392223;32;20159;-65
2021/08/21 05:53:55;;;;;;;20.70;14.57;;;15.80;99.90;;;;;;4391668;32;20184;-65
2021/08/21 05:56:22;;;;;;;20.90;14.37;;;15.90;99.90;;;;;;4392243;32;20215;-65
2021/08/21 05:58:49;;;;;;;20.20;14.63;;;15.90;99.90;;;;;;4391710;32;20175;-65
2021/08/21 06:01:16;;;;;;;23.40;15.43;;;16.00;99.90;;;;;;4392153;32;20791;-62
2021/08/21 06:03:44;;;;;;;21.07;15.27;;;16.00;99.90;;;;;;4393004;32;20215;-66
2021/08/21 06:06:12;;;;;;;22.40;16.33;;;16.00;99.90;;;;;;4387022;32;20177;-65
2021/08/21 06:08:38;;;;;;;22.83;15.63;;;16.10;99.90;;;;;;4388158;32;20175;-66
2021/08/21 06:11:05;;;;;;;22.83;16.43;;;16.10;99.90;;;;;;4391479;32;20167;-65
2021/08/21 06:13:33;;;;;;;21.23;15.47;;;16.20;99.90;;;;;;4391196;32;20187;-66
2021/08/21 06:16:00;;;;;;;21.23;15.33;;;16.30;99.90;;;;;;4390851;32;20668;-63
2021/08/21 06:18:27;;;;;;;19.63;14.47;;;16.40;99.90;;;;;;4381650;32;20186;-64
2021/08/21 06:20:55;;;;;;;24.23;15.90;;;16.60;99.90;;;;;;4393386;32;20152;-64
2021/08/21 06:23:22;;;;;;;22.97;16.90;;;16.80;99.90;;;;;;4383896;32;20190;-64
2021/08/21 06:25:48;;;;;;;22.00;15.30;;;17.10;99.90;;;;;;4386092;32;20605;-65
2021/08/21 06:28:15;;;;;;;23.37;16.67;;;17.60;99.90;;;;;;4383974;32;20160;-65
2021/08/21 06:30:42;;;;;;;24.30;16.83;;;18.20;99.90;;;;;;4390255;32;20151;-65
2021/08/21 06:33:09;;;;;;;23.10;15.93;;;18.60;99.90;;;;;;4388896;32;20310;-65
2021/08/21 06:35:36;;;;;;;23.73;17.50;;;18.80;99.90;;;;;;4382682;32;20173;-65
2021/08/21 06:38:04;;;;;;;23.20;18.53;;;19.00;99.90;;;;;;4391507;32;20164;-65
2021/08/21 06:40:31;;;;;;;28.37;20.17;;;19.10;99.90;;;;;;4388725;32;20178;-65
2021/08/21 06:43:01;;;;;;;25.97;18.80;;;19.10;99.90;;;;;;4389465;32;20179;-65
2021/08/21 06:45:28;;;;;;;25.37;19.40;;;19.00;99.90;;;;;;4390711;32;20564;-65
2021/08/21 06:47:55;;;;;;;29.23;20.63;;;19.10;99.90;;;;;;4383583;32;20186;-65
2021/08/21 06:50:23;;;;;;;29.27;21.40;;;19.50;99.90;;;;;;4389642;32;20159;-65
2021/08/21 06:52:51;;;;;;;31.10;21.00;;;19.70;99.90;;;;;;4388736;32;20612;-66
2021/08/21 06:55:20;;;;;;;29.97;21.20;;;19.90;99.90;;;;;;4391404;32;20193;-67
2021/08/21 06:57:47;;;;;;;33.70;22.47;;;19.90;99.90;;;;;;4382480;32;20156;-66
2021/08/21 07:00:15;;;;;;;29.93;22.83;;;20.10;99.90;;;;;;4379897;32;20173;-67
2021/08/21 07:02:41;;;;;;;31.30;22.00;;;20.40;99.90;;;;;;4390468;32;20223;-67
2021/08/21 07:05:09;;;;;;;29.70;21.00;;;20.40;99.90;;;;;;4389768;32;20588;-67
2021/08/21 07:07:36;;;;;;;24.23;18.93;;;20.30;99.90;;;;;;4384882;32;20227;-68
2021/08/21 07:10:03;;;;;;;26.40;18.87;;;20.40;99.90;;;;;;4389089;32;20218;-67
2021/08/21 07:12:31;;;;;;;22.77;18.23;;;20.40;99.90;;;;;;4392310;32;20667;-67
2021/08/21 07:14:58;;;;;;;24.03;18.30;;;20.50;99.90;;;;;;4389546;32;20667;-66
2021/08/21 07:17:25;;;;;;;24.60;18.37;;;20.60;99.90;;;;;;4391663;32;20207;-66
2021/08/21 07:19:52;;;;;;;21.67;16.30;;;20.60;99.90;;;;;;4390236;32;20156;-65
2021/08/21 07:22:19;;;;;;;27.70;19.27;;;20.80;99.90;;;;;;4383222;32;20635;-66
2021/08/21 07:24:45;;;;;;;25.13;18.77;;;21.20;99.90;;;;;;4379435;32;20183;-65
2021/08/21 07:27:12;;;;;;;22.40;16.90;;;21.50;99.90;;;;;;4385784;32;20179;-66
2021/08/21 07:29:40;;;;;;;22.80;16.57;;;21.60;99.90;;;;;;4385532;32;20190;-65
2021/08/21 07:32:08;;;;;;;22.47;15.90;;;21.80;99.90;;;;;;4384558;32;20153;-65
2021/08/21 07:34:36;;;;;;;16.90;14.00;;;22.00;99.90;;;;;;4389008;32;20282;-66
2021/08/21 07:37:03;;;;;;;18.87;12.50;;;22.20;99.90;;;;;;4387388;32;20195;-67
2021/08/21 07:39:30;;;;;;;17.47;13.17;;;23.00;99.90;;;;;;4387148;32;20207;-65
2021/08/21 07:41:57;;;;;;;17.30;13.93;;;23.40;99.90;;;;;;4386446;32;20625;-65
2021/08/21 07:44:24;;;;;;;12.57;10.30;;;23.60;99.90;;;;;;4387783;32;20236;-65
2021/08/21 07:46:52;;;;;;;12.63;10.43;;;23.70;99.90;;;;;;4389361;32;20204;-66
2021/08/21 07:49:19;;;;;;;16.62;10.93;;;23.80;99.90;;;;;;4386390;32;20168;-65
2021/08/21 07:51:46;;;;;;;14.95;11.57;;;23.80;99.90;;;;;;4389143;32;20176;-65
2021/08/21 07:54:13;;;;;;;14.50;11.43;;;24.60;99.90;;;;;;4388542;32;20243;-66
2021/08/21 07:56:40;;;;;;;14.82;10.98;;;27.20;99.90;;;;;;4389360;32;20160;-68
2021/08/21 07:59:06;;;;;;;11.82;10.20;;;29.00;98.40;;;;;;4385489;32;20156;-64
2021/08/21 08:01:33;;;;;;;12.65;10.77;;;29.00;96.70;;;;;;4388901;32;20219;-64
2021/08/21 08:04:02;;;;;;;11.68;9.57;;;27.80;97.50;;;;;;4389926;32;20156;-64
2021/08/21 08:06:28;;;;;;;12.88;9.02;;;27.40;99.40;;;;;;4385819;32;20191;-65
2021/08/21 08:08:55;;;;;;;13.45;10.68;;;28.70;98.20;;;;;;4387426;32;20172;-65
2021/08/21 08:11:25;;;;;;;11.68;10.35;;;29.60;96.60;;;;;;4389707;32;20222;-64
2021/08/21 08:13:53;;;;;;;12.25;10.00;;;30.50;94.60;;;;;;4388512;32;20225;-66
2021/08/21 08:16:20;;;;;;;11.45;9.52;;;31.10;93.50;;;;;;4385608;32;20219;-63
2021/08/21 08:18:47;;;;;;;11.80;9.70;;;33.50;91.00;;;;;;4386561;32;20226;-66
2021/08/21 08:21:18;;;;;;;9.32;7.50;;;37.10;82.10;;;;;;4385354;32;20536;-66
2021/08/21 08:23:45;;;;;;;9.32;8.23;;;39.20;69.00;;;;;;4387278;32;20167;-68
2021/08/21 08:26:12;;;;;;;9.40;7.90;;;40.50;63.40;;;;;;4387447;32;20289;-66
2021/08/21 08:28:39;;;;;;;8.38;7.50;;;41.90;58.00;;;;;;4385068;32;20176;-68
2021/08/21 08:31:06;;;;;;;9.73;8.50;;;42.70;54.80;;;;;;4384920;32;20230;-67
2021/08/21 08:33:34;;;;;;;10.02;9.02;;;43.30;51.90;;;;;;4388340;32;20236;-65
2021/08/21 08:36:01;;;;;;;11.35;10.20;;;43.40;51.90;;;;;;4385727;32;20192;-65
2021/08/21 08:38:32;;;;;;;9.88;8.88;;;43.20;49.90;;;;;;4384989;32;20152;-65
2021/08/21 08:41:00;;;;;;;11.93;10.65;;;43.30;49.40;;;;;;4377655;32;20159;-66
2021/08/21 08:43:29;;;;;;;9.18;8.27;;;43.60;48.80;;;;;;4387600;32;20168;-65
2021/08/21 08:45:56;;;;;;;10.77;9.75;;;44.20;47.80;;;;;;4386550;32;20230;-65
2021/08/21 08:48:25;;;;;;;7.32;6.62;;;44.00;46.70;;;;;;4385400;32;20156;-64
2021/08/21 08:50:55;;;;;;;11.05;9.95;;;44.60;46.20;;;;;;4388196;32;20282;-66
2021/08/21 08:53:22;;;;;;;9.25;8.35;;;45.20;45.50;;;;;;4390026;32;20239;-68
2021/08/21 08:55:50;;;;;;;10.63;9.60;;;45.30;45.50;;;;;;4389169;32;20239;-67
2021/08/21 08:58:17;;;;;;;10.82;9.73;;;45.20;44.70;;;;;;4378056;32;20179;-67
2021/08/21 09:00:44;;;;;;;8.70;7.82;;;44.70;44.70;;;;;;4383632;32;20191;-67
2021/08/21 09:03:20;;;;;;;7.95;5.57;;;44.70;44.30;;;;;;4392911;32;20144;-66
2021/08/21 09:05:50;;;;;;;10.20;7.75;;;45.10;44.70;;;;;;4392076;32;20183;-66
2021/08/21 09:08:26;;;;;;;7.82;7.03;;;45.80;43.70;;;;;;4379582;32;20174;-67
2021/08/21 09:10:55;;;;;;;8.30;7.37;;;45.90;43.90;;;;;;4380494;32;20557;-66
2021/08/21 09:13:25;;;;;;;9.60;7.72;;;45.60;42.60;;;;;;4380080;32;20252;-66
2021/08/21 09:15:57;;;;;;;7.78;6.87;;;45.10;42.70;;;;;;4382721;32;20205;-67
2021/08/21 09:18:26;;;;;;;10.05;7.28;;;42.90;44.40;;;;;;4380811;32;20488;-68
2021/08/21 09:20:59;;;;;;;8.02;7.22;;;39.50;46.90;;;;;;4378117;32;20178;-67
2021/08/21 09:23:32;;;;;;;8.75;6.57;;;36.20;50.40;;;;;;4380633;32;20621;-68
2021/08/21 09:26:08;;;;;;;10.20;7.93;;;33.60;55.30;;;;;;4376739;32;20582;-67
2021/08/21 09:28:36;;;;;;;10.63;8.68;;;31.80;59.20;;;;;;4384658;32;20220;-68
2021/08/21 09:31:06;;;;;;;10.07;8.75;;;30.50;62.00;;;;;;4392238;32;20532;-67
2021/08/21 09:33:34;;;;;;;10.23;6.87;;;29.80;63.60;;;;;;4391510;32;20215;-68
2021/08/21 09:36:01;;;;;;;10.63;8.68;;;29.40;66.20;;;;;;4377465;32;20208;-66
2021/08/21 09:38:33;;;;;;;9.48;7.70;;;29.20;70.60;;;;;;4377013;32;20167;-65
2021/08/21 09:41:02;;;;;;;9.00;6.20;;;28.80;72.20;;;;;;4390515;32;20594;-66
2021/08/21 09:43:32;;;;;;;8.52;6.60;;;28.70;75.50;;;;;;4391999;32;20160;-66
2021/08/21 09:46:11;;;;;;;10.32;8.88;;;28.50;77.40;;;;;;4392262;32;20160;-66
2021/08/21 09:49:00;;;;;;;7.75;6.97;;;28.40;77.60;;;;;;4378826;32;20160;-67
2021/08/21 09:51:44;;;;;;;6.60;4.80;;;28.70;81.90;;;;;;4378216;32;20200;-65
2021/08/21 09:54:13;;;;;;;7.85;6.05;;;28.80;79.30;;;;;;4391951;32;20151;-65
2021/08/21 09:56:42;;;;;;;7.50;6.53;;;28.60;78.80;;;;;;4392202;32;20156;-65
2021/08/21 09:59:10;;;;;;;6.15;5.55;;;28.40;79.90;;;;;;4391649;32;20561;-65
2021/08/21 10:01:37;;;;;;;8.30;6.87;;;28.30;80.20;;;;;;4392289;32;20182;-66
2021/08/21 10:04:06;;;;;;;10.30;7.00;;;28.30;81.20;;;;;;4387723;32;20500;-65
2021/08/21 10:06:33;;;;;;;11.82;7.75;;;28.10;82.10;;;;;;4376091;32;20164;-65
2021/08/21 10:09:05;;;;;;;11.20;8.15;;;27.90;85.40;;;;;;4387205;32;20151;-65
2021/08/21 10:11:32;;;;;;;8.13;7.07;;;28.00;87.00;;;;;;4392482;32;20495;-65
2021/08/21 10:13:59;;;;;;;10.52;8.52;;;28.20;88.20;;;;;;4391566;32;20164;-65
2021/08/21 10:16:29;;;;;;;11.27;7.70;;;28.40;89.70;;;;;;4391898;32;20171;-64
2021/08/21 10:19:00;;;;;;;9.60;8.27;;;28.50;88.70;;;;;;4391339;32;20175;-64
2021/08/21 10:21:28;;;;;;;11.23;8.85;;;28.60;88.80;;;;;;4390756;32;20192;-65
2021/08/21 10:23:57;;;;;;;8.80;7.28;;;28.40;89.80;;;;;;4391620;32;20531;-64
2021/08/21 10:26:30;;;;;;;13.60;11.12;;;28.20;90.10;;;;;;4391863;32;20203;-65
2021/08/21 10:29:00;;;;;;;12.02;10.35;;;27.80;91.00;;;;;;4390996;32;20206;-65
2021/08/21 10:31:37;;;;;;;8.38;7.53;;;27.60;91.50;;;;;;4390758;32;20186;-65
2021/08/21 10:34:05;;;;;;;11.40;8.80;;;27.30;92.60;;;;;;4390857;32;20172;-65
2021/08/21 10:36:59;;;;;;;12.73;10.73;;;27.10;94.30;;;;;;4391887;32;20556;-64
2021/08/21 10:39:36;;;;;;;13.68;11.30;;;26.90;94.00;;;;;;4343870;33;20179;-66
2021/08/21 10:42:22;;;;;;;11.63;10.27;;;27.00;94.80;;;;;;4329856;33;20149;-67
2021/08/21 10:44:50;;;;;;;14.77;11.73;;;27.20;94.60;;;;;;4331159;33;20217;-65
2021/08/21 10:47:43;;;;;;;15.88;11.57;;;27.40;94.00;;;;;;4344775;33;20199;-66
2021/08/21 10:50:31;;;;;;;12.70;10.02;;;27.20;93.70;;;;;;4285619;33;20171;-66
2021/08/21 10:52:59;;;;;;;11.77;10.13;;;26.80;94.00;;;;;;4285441;33;20176;-66
2021/08/21 10:55:28;;;;;;;14.48;10.20;;;26.70;94.60;;;;;;4286462;33;20604;-68
2021/08/21 10:58:05;;;;;;;13.77;11.75;;;26.70;95.20;;;;;;4285610;33;20182;-66
2021/08/21 11:00:55;;;;;;;14.18;12.13;;;26.80;95.00;;;;;;4286280;33;20611;-66
2021/08/21 11:03:47;;;;;;;14.67;10.63;;;27.10;94.90;;;;;;4244641;32;1689714;-68
2021/08/21 11:06:17;;;;;;;12.70;10.02;;;27.30;94.80;;;;;;4390730;32;20186;-66
2021/08/21 11:08:58;;;;;;;12.50;9.52;;;27.50;94.90;;;;;;4390753;32;20160;-66
2021/08/21 11:11:32;;;;;;;11.85;10.63;;;27.40;94.70;;;;;;4391191;32;20520;-66
2021/08/21 11:14:01;;;;;;;14.27;12.52;;;27.30;94.20;;;;;;4381411;32;20512;-68
2021/08/21 11:16:46;;;;;;;11.70;9.00;;;27.10;94.70;;;;;;4390948;32;20286;-67
2021/08/21 11:19:31;;;;;;;10.55;9.45;;;27.10;94.90;;;;;;4391491;32;20194;-68
2021/08/21 11:22:17;;;;;;;15.18;13.32;;;27.20;95.10;;;;;;4390973;32;20152;-68
2021/08/21 11:25:07;;;;;;;14.20;12.80;;;27.20;94.70;;;;;;4390563;32;20151;-67
2021/08/21 11:27:42;;;;;;;13.55;11.85;;;27.20;95.10;;;;;;4390998;32;20198;-67
2021/08/21 11:33:05;;;;;;;19.20;15.07;;;27.60;95.00;;;;;;4391047;32;20493;-68
2021/08/21 11:35:36;;;;;;;15.23;13.05;;;27.50;94.50;;;;;;4389945;32;20152;-67
2021/08/21 11:38:05;;;;;;;13.90;12.45;;;27.20;95.00;;;;;;4389268;32;20158;-69
2021/08/21 11:40:35;;;;;;;13.70;11.60;;;27.20;94.60;;;;;;4382445;32;20523;-68
2021/08/21 11:43:04;;;;;;;14.93;11.65;;;27.20;94.60;;;;;;4390706;32;20171;-66
2021/08/21 11:45:33;;;;;;;14.48;12.10;;;27.20;95.20;;;;;;4389732;32;20144;-68
2021/08/21 11:48:00;;;;;;;13.73;11.50;;;27.20;94.80;;;;;;4390445;32;20167;-66
2021/08/21 11:50:33;;;;;;;11.73;10.48;;;27.20;94.60;;;;;;4390594;32;20171;-67
2021/08/21 11:53:03;;;;;;;16.85;12.85;;;27.20;94.70;;;;;;4391415;32;20546;-68
2021/08/21 11:55:31;;;;;;;14.85;12.75;;;27.30;94.80;;;;;;4391873;32;20151;-67
2021/08/21 11:57:58;;;;;;;13.35;11.95;;;27.50;94.90;;;;;;4390608;32;20223;-68
2021/08/21 12:00:28;;;;;;;16.92;13.15;;;27.70;95.00;;;;;;4391954;32;20572;-67
2021/08/21 12:02:58;;;;;;;15.20;13.65;;;27.80;94.50;;;;;;4389753;32;20148;-66
2021/08/21 12:05:35;;;;;;;16.60;13.60;;;27.60;94.60;;;;;;4390164;32;20174;-67
2021/08/21 12:08:16;;;;;;;16.40;13.25;;;27.30;94.50;;;;;;4390631;32;20227;-66
2021/08/21 12:10:45;;;;;;;15.00;13.40;;;27.20;95.30;;;;;;4389167;32;20191;-67
2021/08/21 12:13:18;;;;;;;12.52;11.12;;;27.20;95.00;;;;;;4391331;32;20145;-68
2021/08/21 12:15:46;;;;;;;9.77;7.80;;;27.00;95.30;;;;;;4385734;32;20155;-69
2021/08/21 12:18:14;;;;;;;11.90;10.70;;;27.00;96.20;;;;;;4390568;32;20182;-69
2021/08/21 12:20:43;;;;;;;10.90;9.75;;;27.10;95.20;;;;;;4388336;32;20144;-67
2021/08/21 12:23:13;;;;;;;11.20;9.93;;;27.10;95.10;;;;;;4390088;32;20457;-69
2021/08/21 12:25:45;;;;;;;12.05;9.75;;;27.10;94.70;;;;;;4388193;32;20223;-68
2021/08/21 12:28:12;;;;;;;13.43;12.07;;;27.20;94.80;;;;;;4389364;32;20243;-67
2021/08/21 12:30:39;;;;;;;16.15;12.57;;;27.30;94.70;;;;;;4392470;32;20159;-67
2021/08/21 12:33:11;;;;;;;10.00;9.00;;;27.30;94.00;;;;;;4392405;32;20572;-68
2021/08/21 12:35:38;;;;;;;11.95;10.73;;;27.30;94.70;;;;;;4392508;32;20140;-67
2021/08/21 12:38:09;;;;;;;14.90;10.70;;;27.40;94.80;;;;;;4391923;32;20156;-67
2021/08/21 12:40:36;;;;;;;10.88;9.77;;;27.50;94.60;;;;;;4394923;32;20658;-68
2021/08/21 12:43:06;;;;;;;11.65;10.45;;;27.60;94.70;;;;;;4395717;32;20338;-69